Time;durP1;ratioP1;P1;durP2;ratioP2;P2;SDS_P1;SDS_P2;PMS_P1;PMS_P2;Temp;Humidity;BMP_temperature;BMP_pressure;BME280_temperature;BME280_humidity;BME280_pressure;Samples;Min_cycle;Max_cycle;Signal;HPM_P1;HPM_P2
2023/09/22 00:03:47;;;;;;;;;;;;;;;16.92;100.00;98347.13;12175608;19;20170;-81
2023/09/22 00:07:49;;;;;;;;;;;;;;;16.94;100.00;98353.19;12207540;19;19974;-79
2023/09/22 00:11:51;;;;;;;;;;;;;;;16.93;100.00;98359.09;12206773;19;19919;-80
2023/09/22 00:15:53;;;;;;;;;;;;;;;16.91;100.00;98353.84;12187425;19;20772;-79
2023/09/22 00:19:55;;;;;;;;;;;;;;;16.96;100.00;98353.69;12211325;19;20326;-80
2023/09/22 00:23:56;;;;;;;;;;;;;;;16.92;100.00;98347.13;12210958;19;19919;-81
2023/09/22 00:27:58;;;;;;;;;;;;;;;16.93;100.00;98364.69;12183064;19;20179;-81
2023/09/22 00:32:02;;;;;;;;;;;;;;;16.89;100.00;98367.25;12196879;19;19907;-81
2023/09/22 00:36:04;;;;;;;;;;;;;;;16.85;100.00;98360.72;12201682;19;19915;-80
2023/09/22 00:40:08;;;;;;;;;;;;;;;16.84;100.00;98364.66;12186627;19;19907;-80
2023/09/22 00:44:11;;;;;;;;;;;;;;;16.72;100.00;98376.41;12204393;19;19922;-80
2023/09/22 00:48:20;;;;;;;;;;;;;;;16.68;100.00;98383.75;12204898;19;19911;-80
2023/09/22 00:52:22;;;;;;;;;;;;;;;16.59;100.00;98385.69;12178536;19;19907;-81
2023/09/22 00:56:24;;;;;;;;;;;;;;;16.47;100.00;98379.94;12205752;19;19922;-80
2023/09/22 01:00:27;;;;;;;;;;;;;;;16.43;100.00;98390.91;12200818;19;19914;-80
2023/09/22 01:04:29;;;;;;;;;;;;;;;16.31;100.00;98385.97;12182884;19;19918;-80
2023/09/22 01:08:31;;;;;;;;;;;;;;;16.23;100.00;98370.06;12204868;19;19907;-80
2023/09/22 01:12:34;;;;;;;;;;;;;;;16.06;100.00;98381.13;12186781;19;19926;-80
2023/09/22 01:16:36;;;;;;;;;;;;;;;16.02;100.00;98399.59;12209648;19;19919;-81
2023/09/22 01:20:44;;;;;;;;;;;;;;;16.00;100.00;98399.06;12203784;19;20087;-81
2023/09/22 01:24:46;;;;;;;;;;;;;;;15.95;100.00;98394.50;12181374;19;19915;-80
2023/09/22 01:28:49;;;;;;;;;;;;;;;15.95;100.00;98398.09;12203060;19;19943;-80
2023/09/22 01:32:50;;;;;;;;;;;;;;;15.91;100.00;98397.09;12197053;19;19918;-81
2023/09/22 01:36:53;;;;;;;;;;;;;;;15.87;100.00;98403.59;12184939;19;19908;-80
2023/09/22 01:40:58;;;;;;;;;;;;;;;15.72;100.00;98416.75;12197248;19;19903;-81
2023/09/22 01:49:48;;;;;;;;;;;;;;;15.60;100.00;98418.44;12170971;19;19925;-80
2023/09/22 01:53:50;;;;;;;;;;;;;;;15.59;100.00;98428.72;12205656;19;19993;-81
2023/09/22 01:57:51;;;;;;;;;;;;;;;15.59;100.00;98427.91;12184952;19;19911;-80
2023/09/22 02:01:53;;;;;;;;;;;;;;;15.57;100.00;98407.97;12203390;19;19943;-80
2023/09/22 02:05:55;;;;;;;;;;;;;;;15.60;100.00;98374.03;12203494;19;19931;-80
2023/09/22 02:09:56;;;;;;;;;;;;;;;15.61;100.00;98414.50;12177236;19;19902;-81
2023/09/22 02:13:59;;;;;;;;;;;;;;;15.59;100.00;98436.25;12202388;19;19935;-81
2023/09/22 02:18:01;;;;;;;;;;;;;;;15.56;100.00;98434.91;12204067;19;19979;-81
2023/09/22 02:22:03;;;;;;;;;;;;;;;15.53;100.00;98430.00;12187580;19;19903;-81
2023/09/22 02:26:06;;;;;;;;;;;;;;;15.54;100.00;98428.03;12200265;19;19914;-81
2023/09/22 02:30:08;;;;;;;;;;;;;;;15.54;100.00;98397.50;12200112;19;19919;-81
2023/09/22 02:34:10;;;;;;;;;;;;;;;15.55;100.00;98355.53;12177036;19;19914;-81
2023/09/22 02:38:11;;;;;;;;;;;;;;;15.56;100.00;98350.81;12214368;19;20374;-81
2023/09/22 02:42:14;;;;;;;;;;;;;;;15.50;100.00;98391.78;12213944;19;19935;-81
2023/09/22 02:46:16;;;;;;;;;;;;;;;15.49;100.00;98409.53;12191735;19;19915;-81
2023/09/22 02:50:19;;;;;;;;;;;;;;;15.45;100.00;98389.13;12213644;19;19939;-81
2023/09/22 02:54:20;;;;;;;;;;;;;;;15.40;100.00;98380.91;12213258;19;19924;-82
2023/09/22 02:58:23;;;;;;;;;;;;;;;15.42;100.00;98379.47;12191857;19;19907;-81
2023/09/22 03:02:25;;;;;;;;;;;;;;;15.51;100.00;98396.16;12201597;19;19925;-81
2023/09/22 03:06:27;;;;;;;;;;;;;;;15.59;100.00;98411.25;12199610;19;19915;-81
2023/09/22 03:10:29;;;;;;;;;;;;;;;15.66;100.00;98425.50;12182019;19;19911;-81
2023/09/22 03:14:32;;;;;;;;;;;;;;;15.71;100.00;98444.84;12207642;19;19929;-82
2023/09/22 03:18:34;;;;;;;;;;;;;;;15.71;100.00;98428.19;12185293;19;19914;-82
2023/09/22 03:22:36;;;;;;;;;;;;;;;15.70;100.00;98429.31;12216104;19;20019;-81
2023/09/22 03:26:38;;;;;;;;;;;;;;;15.65;100.00;98437.75;12222038;19;19915;-81
2023/09/22 03:30:40;;;;;;;;;;;;;;;15.61;100.00;98426.44;12200235;19;20233;-81
2023/09/22 03:34:42;;;;;;;;;;;;;;;15.59;100.00;98405.72;12220450;19;20397;-81
2023/09/22 03:38:47;;;;;;;;;;;;;;;15.46;100.00;98429.59;12224700;19;19986;-81
2023/09/22 03:42:49;;;;;;;;;;;;;;;15.45;100.00;98398.25;12202985;19;19915;-81
2023/09/22 03:46:51;;;;;;;;;;;;;;;15.44;100.00;98426.34;12228377;19;19910;-81
2023/09/22 03:50:56;;;;;;;;;;;;;;;15.43;100.00;98433.81;12222693;19;19922;-81
2023/09/22 03:54:57;;;;;;;;;;;;;;;15.42;100.00;98448.03;12201936;19;19914;-82
2023/09/22 03:58:59;;;;;;;;;;;;;;;15.43;100.00;98458.81;12218350;19;19931;-82
2023/09/22 04:03:03;;;;;;;;;;;;;;;15.43;100.00;98471.88;12212613;19;19926;-82
2023/09/22 04:07:05;;;;;;;;;;;;;;;15.42;100.00;98484.13;12184989;19;19924;-82
2023/09/22 04:11:07;;;;;;;;;;;;;;;15.38;100.00;98472.84;12201563;19;19915;-81
2023/09/22 04:15:09;;;;;;;;;;;;;;;15.27;100.00;98471.44;12205981;19;19919;-82
2023/09/22 04:19:11;;;;;;;;;;;;;;;15.22;100.00;98479.88;12182415;19;20430;-83
2023/09/22 04:23:13;;;;;;;;;;;;;;;15.21;100.00;98472.69;12202785;19;19910;-82
2023/09/22 04:27:15;;;;;;;;;;;;;;;15.25;100.00;98462.59;12202692;19;19919;-82
2023/09/22 04:31:16;;;;;;;;;;;;;;;15.24;100.00;98447.91;12178705;19;19936;-83
2023/09/22 04:35:20;;;;;;;;;;;;;;;15.27;100.00;98441.72;12202094;19;20481;-82
2023/09/22 04:39:22;;;;;;;;;;;;;;;15.30;100.00;98447.78;12204331;19;19918;-83
2023/09/22 04:43:24;;;;;;;;;;;;;;;15.34;100.00;98441.28;12180191;19;19918;-81
2023/09/22 04:47:26;;;;;;;;;;;;;;;15.31;100.00;98454.97;12200630;19;20426;-82
2023/09/22 04:51:28;;;;;;;;;;;;;;;15.28;100.00;98462.78;12200795;19;19919;-81
2023/09/22 04:55:34;;;;;;;;;;;;;;;15.30;100.00;98479.13;12182914;19;19935;-84
2023/09/22 04:59:36;;;;;;;;;;;;;;;15.37;100.00;98448.97;12203323;19;19915;-83
2023/09/22 05:03:39;;;;;;;;;;;;;;;15.47;100.00;98456.25;12176485;19;19926;-83
2023/09/22 05:07:41;;;;;;;;;;;;;;;15.47;100.00;98464.56;12201812;19;20251;-83
2023/09/22 05:11:42;;;;;;;;;;;;;;;15.48;100.00;98442.03;12200279;19;20635;-82
2023/09/22 05:15:45;;;;;;;;;;;;;;;15.42;100.00;98456.38;12181887;19;19911;-83
2023/09/22 05:19:46;;;;;;;;;;;;;;;15.45;100.00;98466.84;12199983;19;19956;-82
2023/09/22 05:23:48;;;;;;;;;;;;;;;15.46;100.00;98471.25;12205531;19;19911;-82
2023/09/22 05:27:50;;;;;;;;;;;;;;;15.42;100.00;98489.69;12183779;19;19911;-84
2023/09/22 05:31:52;;;;;;;;;;;;;;;15.40;100.00;98509.41;12202726;19;19924;-83
2023/09/22 05:35:53;;;;;;;;;;;;;;;15.44;100.00;98504.88;12204205;19;19918;-81
2023/09/22 05:39:55;;;;;;;;;;;;;;;15.43;100.00;98497.66;12204120;19;19910;-82
2023/09/22 05:43:57;;;;;;;;;;;;;;;15.50;100.00;98506.41;12197735;19;19982;-81
2023/09/22 05:47:59;;;;;;;;;;;;;;;15.58;100.00;98515.09;12195875;19;20280;-83
2023/09/22 05:52:01;;;;;;;;;;;;;;;15.66;100.00;98511.59;12177819;19;19922;-84
2023/09/22 05:56:10;;;;;;;;;;;;;;;15.76;100.00;98488.31;12196428;19;20031;-83
2023/09/22 06:00:18;;;;;;;;;;;;;;;15.81;100.00;98486.22;12198763;19;19915;-84
2023/09/22 06:04:20;;;;;;;;;;;;;;;15.91;100.00;98486.00;12171540;19;19971;-84
2023/09/22 06:08:21;;;;;;;;;;;;;;;16.01;100.00;98496.00;12195625;19;19911;-84
2023/09/22 06:12:23;;;;;;;;;;;;;;;16.12;100.00;98522.41;12190507;19;19970;-83
2023/09/22 06:19:11;;;;;;;6.30;1.80;;;;;;;16.16;100.00;98530.91;12230168;19;20343;-83
2023/09/22 06:23:12;;;;;;;4.45;2.42;;;;;;;16.18;100.00;98553.63;12245702;19;20038;-83
2023/09/22 06:27:14;;;;;;;7.38;1.85;;;;;;;16.27;100.00;98560.09;12248713;19;20007;-82
2023/09/22 06:31:16;;;;;;;6.18;2.22;;;;;;;16.33;100.00;98564.38;12211234;19;20025;-82
2023/09/22 06:35:18;;;;;;;6.78;2.10;;;;;;;16.35;100.00;98562.06;12255007;19;20276;-82
2023/09/22 06:39:19;;;;;;;4.53;2.13;;;;;;;16.39;100.00;98545.59;12253357;19;20027;-82
2023/09/22 06:43:25;;;;;;;5.97;2.13;;;;;;;16.44;100.00;98558.53;12234131;19;20019;-84
2023/09/22 06:47:28;;;;;;;3.13;1.60;;;;;;;16.57;100.00;98565.97;12253193;19;20035;-83
2023/09/22 06:51:31;;;;;;;6.93;1.90;;;;;;;16.63;100.00;98573.03;12253187;19;20398;-83
2023/09/22 06:55:33;;;;;;;7.70;1.60;;;;;;;16.61;100.00;98592.81;12233205;19;20009;-83
2023/09/22 06:59:35;;;;;;;4.82;2.10;;;;;;;16.77;100.00;98606.31;12256311;19;20003;-82
2023/09/22 07:03:41;;;;;;;3.35;1.23;;;;;;;16.86;100.00;98604.41;12232291;19;20010;-82
2023/09/22 07:07:44;;;;;;;3.67;1.60;;;;;;;16.95;100.00;98573.84;12257375;19;20034;-82
2023/09/22 07:11:46;;;;;;;5.03;1.33;;;;;;;16.94;100.00;98578.59;12254239;19;19999;-82
2023/09/22 07:15:53;;;;;;;;;;;;;;;16.83;100.00;98588.34;12232644;19;20473;-82
2023/09/22 07:19:55;;;;;;;2.63;1.23;;;;;;;16.80;100.00;98591.78;12253371;19;19978;-82
2023/09/22 07:23:58;;;;;;;3.67;1.47;;;;;;;16.77;100.00;98611.88;12254251;19;20010;-82
2023/09/22 07:27:59;;;;;;;3.37;1.70;;;;;;;16.81;100.00;98627.63;12212961;19;19998;-81
2023/09/22 07:32:01;;;;;;;3.80;1.40;;;;;;;16.80;100.00;98622.38;12205507;19;20333;-82
2023/09/22 07:36:03;;;;;;;2.25;1.23;;;;;;;16.76;100.00;98627.75;12206046;19;20007;-82
2023/09/22 07:40:08;;;;;;;2.63;1.03;;;;;;;16.80;100.00;98628.75;12178319;19;20364;-82
2023/09/22 07:44:12;;;;;;;5.80;1.35;;;;;;;17.01;100.00;98634.59;12203088;19;20652;-81
2023/09/22 07:48:13;;;;;;;2.33;1.20;;;;;;;17.15;100.00;98625.31;12203226;19;20018;-82
2023/09/22 07:52:16;;;;;;;3.08;1.40;;;;;;;17.12;100.00;98620.41;12183246;19;20006;-82
2023/09/22 07:56:18;;;;;;;4.95;1.10;;;;;;;17.16;100.00;98616.63;12203391;19;20010;-82
2023/09/22 08:00:20;;;;;;;5.80;1.30;;;;;;;17.33;100.00;98610.31;12205639;19;20002;-83
2023/09/22 08:04:23;;;;;;;2.80;0.90;;;;;;;17.49;100.00;98602.28;12176850;19;20002;-83
2023/09/22 08:08:25;;;;;;;2.53;1.08;;;;;;;17.63;100.00;98591.84;12202332;19;20026;-81
2023/09/22 08:12:28;;;;;;;3.65;1.30;;;;;;;17.72;100.00;98603.00;12197359;19;20014;-87
2023/09/22 08:16:30;;;;;;;4.63;1.17;;;;;;;17.90;100.00;98606.63;12178130;19;21733;-83
2023/09/22 08:20:34;;;;;;;3.13;1.17;;;;;;;18.04;100.00;98612.88;12202162;19;20017;-82
2023/09/22 08:24:36;;;;;;;3.90;1.38;;;;;;;18.10;100.00;98627.47;12179283;19;20105;-82
2023/09/22 08:28:41;;;;;;;3.63;1.23;;;;;;;18.17;100.00;98636.13;12198381;19;20074;-83
2023/09/22 08:32:44;;;;;;;3.38;1.15;;;;;;;18.25;100.00;98643.69;12193367;19;20018;-80
2023/09/22 08:36:46;;;;;;;3.90;1.83;;;;;;;18.16;100.00;98631.72;12184496;19;20014;-82
2023/09/22 08:40:49;;;;;;;2.47;1.05;;;;;;;17.98;100.00;98656.81;12196393;19;20014;-81
2023/09/22 08:44:51;;;;;;;3.17;1.63;;;;;;;18.02;100.00;98645.00;12202076;19;20015;-81
2023/09/22 08:48:52;;;;;;;2.67;1.20;;;;;;;18.13;100.00;98644.34;12181725;19;20019;-82
2023/09/22 08:52:54;;;;;;;2.27;1.30;;;;;;;18.25;100.00;98640.91;12203912;19;20007;-81
2023/09/22 08:56:57;;;;;;;4.63;1.50;;;;;;;18.30;100.00;98635.16;12201596;19;20053;-82
2023/09/22 09:00:59;;;;;;;5.35;1.60;;;;;;;18.47;100.00;98639.06;12184645;19;20019;-82
2023/09/22 09:05:16;;;;;;;2.03;1.08;;;;;;;18.90;100.00;98641.78;12198348;19;20014;-81
2023/09/22 09:09:20;;;;;;;3.67;1.48;;;;;;;19.15;100.00;98636.44;12198207;19;20035;-82
2023/09/22 09:13:23;;;;;;;;;;;;;;;19.12;100.00;98627.56;12179956;19;20007;-81
2023/09/22 09:17:25;;;;;;;5.93;1.20;;;;;;;19.62;100.00;98627.97;12204878;19;19919;-82
2023/09/22 09:21:27;;;;;;;8.98;1.48;;;;;;;19.70;100.00;98627.13;12203049;19;20006;-82
2023/09/22 09:25:30;;;;;;;9.55;1.48;;;;;;;19.55;100.00;98620.13;12183385;19;20010;-82
2023/09/22 09:29:33;;;;;;;3.77;1.10;;;;;;;19.51;100.00;98635.91;12207332;19;20006;-82
2023/09/22 09:33:34;;;;;;;;;;;;;;;19.79;98.80;98630.69;12178439;19;20010;-82
2023/09/22 09:37:36;;;;;;;2.97;1.17;;;;;;;19.88;97.91;98625.03;12201940;19;19914;-83
2023/09/22 09:41:43;;;;;;;1.90;1.10;;;;;;;19.75;94.74;98644.53;12201828;19;20037;-82
2023/09/22 09:48:45;;;;;;;3.00;1.17;;;;;;;19.55;98.91;98651.69;12239719;19;20351;-82
2023/09/22 09:52:56;;;;;;;6.35;1.67;;;;;;;19.57;97.98;98629.81;12261475;19;20006;-82
2023/09/22 09:56:59;;;;;;;2.85;1.40;;;;;;;19.54;98.08;98643.63;12261412;19;20391;-81
2023/09/22 10:01:05;;;;;;;3.00;1.17;;;;;;;19.43;94.51;98640.41;12243020;19;20007;-82
2023/09/22 10:05:10;;;;;;;4.13;1.10;;;;;;;19.25;93.37;98634.09;12263472;19;20034;-83
2023/09/22 10:09:12;;;;;;;3.53;1.20;;;;;;;19.54;91.86;98638.88;12262465;19;20069;-81
2023/09/22 10:13:15;;;;;;;3.17;1.10;;;;;;;19.78;85.88;98643.00;12237016;19;20030;-81
2023/09/22 10:17:24;;;;;;;4.05;1.67;;;;;;;20.13;83.70;98637.97;12263521;19;20010;-82
2023/09/22 10:21:48;;;;;;;3.88;1.30;;;;;;;20.26;80.74;98652.84;12258808;19;20014;-83
2023/09/22 10:26:19;;;;;;;4.68;1.52;;;;;;;20.33;82.48;98646.69;12238465;19;20021;-82
2023/09/22 10:30:23;;;;;;;3.03;1.20;;;;;;;20.59;79.42;98649.28;12263811;19;20015;-82
2023/09/22 10:35:07;;;;;;;3.35;1.05;;;;;;;21.36;77.57;98636.38;12238594;19;20006;-82
2023/09/22 10:39:09;;;;;;;1.75;1.20;;;;;;;21.98;72.28;98623.09;12267946;19;20886;-83
2023/09/22 10:43:13;;;;;;;5.13;1.80;;;;;;;22.18;69.38;98635.34;12234938;19;20022;-81
2023/09/22 10:47:15;;;;;;;4.60;1.15;;;;;;;22.24;66.28;98633.91;12262575;19;20021;-83
2023/09/22 10:51:18;;;;;;;1.70;1.00;;;;;;;22.45;65.57;98642.13;12256538;19;20037;-83
2023/09/22 10:55:36;;;;;;;1.98;0.90;;;;;;;22.71;64.55;98646.47;12232569;19;20437;-84
2023/09/22 10:59:38;;;;;;;3.92;1.45;;;;;;;22.93;63.63;98647.84;12216752;19;20636;-82
2023/09/22 11:03:53;;;;;;;4.15;0.98;;;;;;;23.01;63.57;98646.91;12182067;19;20023;-81
2023/09/22 11:07:55;;;;;;;2.50;1.25;;;;;;;22.74;61.31;98643.75;12202213;19;20046;-82
2023/09/22 11:11:57;;;;;;;2.30;0.95;;;;;;;22.28;60.84;98646.06;12213499;19;20006;-79
2023/09/22 11:16:04;;;;;;;3.60;0.93;;;;;;;21.78;62.70;98632.50;12216767;19;20006;-81
2023/09/22 11:20:12;;;;;;;4.05;1.10;;;;;;;21.68;61.08;98633.78;12233916;19;20255;-83
2023/09/22 11:24:13;;;;;;;2.35;1.40;;;;;;;21.63;61.76;98631.22;12224216;19;20006;-80
2023/09/22 11:28:16;;;;;;;3.22;1.00;;;;;;;21.49;62.04;98631.59;12195717;19;20037;-81
2023/09/22 11:32:30;;;;;;;3.40;1.25;;;;;;;21.31;62.66;98627.34;12210455;19;20010;-81
2023/09/22 11:36:46;;;;;;;2.95;1.50;;;;;;;21.02;60.77;98625.56;12210130;19;20037;-82
2023/09/22 11:40:48;;;;;;;3.42;1.30;;;;;;;20.78;62.38;98635.56;12211790;19;20023;-83
2023/09/22 11:44:57;;;;;;;2.22;1.10;;;;;;;21.68;62.39;98625.38;12203133;19;20034;-82
2023/09/22 11:49:01;;;;;;;2.22;1.17;;;;;;;21.88;61.55;98626.38;12187577;19;20366;-83
2023/09/22 11:53:29;;;;;;;2.63;1.00;;;;;;;22.05;61.25;98626.13;12207962;19;20026;-81
2023/09/22 11:57:30;;;;;;;4.18;1.20;;;;;;;22.80;56.20;98621.03;12205378;19;20007;-83
2023/09/22 12:01:32;;;;;;;1.67;0.80;;;;;;;23.46;53.80;98605.47;12182182;19;20037;-83
2023/09/22 12:05:36;;;;;;;3.67;1.10;;;;;;;23.34;54.02;98618.44;12203743;19;20002;-82
2023/09/22 12:09:40;;;;;;;2.67;0.95;;;;;;;24.31;52.90;98600.94;12183353;19;20007;-82
2023/09/22 12:13:42;;;;;;;2.17;0.90;;;;;;;24.35;51.92;98599.00;12209010;19;20048;-83
2023/09/22 12:17:45;;;;;;;2.95;0.82;;;;;;;24.87;50.26;98605.28;12206647;19;20007;-81
2023/09/22 12:21:47;;;;;;;2.55;0.77;;;;;;;24.02;50.68;98600.34;12185418;19;20014;-82
2023/09/22 12:25:52;;;;;;;3.40;0.95;;;;;;;23.23;53.24;98613.72;12204194;19;20014;-83
2023/09/22 12:29:54;;;;;;;2.53;0.93;;;;;;;24.11;54.87;98592.50;12206492;19;20011;-83
2023/09/22 12:33:56;;;;;;;2.03;0.90;;;;;;;26.12;49.96;98567.78;12184304;19;20067;-82
2023/09/22 12:37:57;;;;;;;3.47;0.85;;;;;;;27.26;44.07;98571.81;12222252;19;20007;-81
2023/09/22 12:41:59;;;;;;;2.05;0.90;;;;;;;26.39;43.04;98587.47;12215971;19;20021;-82
2023/09/22 12:46:01;;;;;;;1.88;0.90;;;;;;;26.34;46.55;98572.47;12174984;19;20022;-83
2023/09/22 12:50:08;;;;;;;1.98;0.95;;;;;;;27.33;41.17;98590.03;12202391;19;20473;-84
2023/09/22 12:54:10;;;;;;;3.42;1.10;;;;;;;27.83;39.88;98584.75;12200085;19;20019;-82
2023/09/22 12:58:11;;;;;;;3.35;1.02;;;;;;;28.05;40.37;98580.84;12175733;19;20017;-84
2023/09/22 13:02:13;;;;;;;3.35;0.90;;;;;;;27.52;40.68;98569.19;12197647;19;20014;-82
2023/09/22 13:06:15;;;;;;;4.85;1.08;;;;;;;27.08;41.73;98565.16;12202256;19;20016;-81
2023/09/22 13:10:17;;;;;;;2.05;0.80;;;;;;;26.40;41.94;98558.00;12177129;19;20014;-81
2023/09/22 13:14:19;;;;;;;2.97;1.10;;;;;;;25.48;43.48;98572.47;12198461;19;20042;-82
2023/09/22 13:18:21;;;;;;;3.70;1.13;;;;;;;24.46;45.37;98565.47;12199115;19;20007;-83
2023/09/22 13:22:23;;;;;;;4.15;1.00;;;;;;;24.03;45.89;98556.94;12175377;19;20018;-82
2023/09/22 13:26:25;;;;;;;1.98;0.88;;;;;;;23.68;47.83;98559.78;12201804;19;20011;-82
2023/09/22 13:30:27;;;;;;;1.92;0.85;;;;;;;23.59;48.25;98557.19;12197581;19;20010;-82
2023/09/22 13:34:33;;;;;;;3.93;0.93;;;;;;;23.57;48.21;98559.53;12177466;19;20003;-81
2023/09/22 13:38:35;;;;;;;2.53;0.70;;;;;;;23.36;49.77;98562.69;12202927;19;20050;-79
2023/09/22 13:42:38;;;;;;;2.20;0.80;;;;;;;23.11;50.35;98556.47;12177892;19;20010;-81
2023/09/22 13:46:40;;;;;;;1.65;0.73;;;;;;;22.93;51.25;98557.97;12195852;19;20055;-81
2023/09/22 13:50:42;;;;;;;2.72;1.13;;;;;;;22.61;52.29;98562.75;12200508;19;20436;-80
2023/09/22 13:54:43;;;;;;;1.80;0.80;;;;;;;22.33;52.64;98554.38;12177864;19;20378;-81
2023/09/22 13:58:49;;;;;;;1.77;0.70;;;;;;;22.17;53.54;98555.16;12202154;19;20019;-81
2023/09/22 14:02:51;;;;;;;4.18;1.00;;;;;;;22.21;54.15;98550.44;12189919;19;20019;-81
2023/09/22 14:06:53;;;;;;;3.17;0.60;;;;;;;22.01;54.46;98557.03;12174992;19;20499;-81
2023/09/22 14:10:56;;;;;;;3.20;1.00;;;;;;;21.99;54.20;98548.19;12197696;19;20010;-83
2023/09/22 14:14:58;;;;;;;1.90;0.90;;;;;;;21.97;54.76;98542.91;12192055;19;20007;-82
2023/09/22 14:18:59;;;;;;;1.90;0.73;;;;;;;22.00;55.45;98544.19;12175491;19;20010;-82
2023/09/22 14:23:01;;;;;;;5.10;1.03;;;;;;;22.25;55.67;98545.75;12196194;19;20010;-80
2023/09/22 14:27:04;;;;;;;1.97;0.70;;;;;;;22.27;55.04;98549.00;12193918;19;20504;-81
2023/09/22 14:31:06;;;;;;;3.00;0.75;;;;;;;22.24;54.49;98544.13;12170925;19;20011;-81
2023/09/22 14:35:08;;;;;;;2.00;0.87;;;;;;;22.03;55.67;98535.88;12198219;19;20082;-80
2023/09/22 14:39:10;;;;;;;3.10;0.80;;;;;;;22.41;54.06;98550.59;12212924;19;20260;-82
2023/09/22 14:43:12;;;;;;;2.67;1.23;;;;;;;22.95;53.90;98539.59;12178387;19;20010;-81
2023/09/22 14:47:13;;;;;;;4.10;0.70;;;;;;;23.35;51.01;98541.38;12197757;19;20431;-83
2023/09/22 14:51:15;;;;;;;4.30;1.37;;;;;;;23.04;50.46;98542.22;12204416;19;20045;-80
2023/09/22 14:55:18;;;;;;;1.58;0.65;;;;;;;22.26;52.63;98540.97;12190822;19;20415;-79
2023/09/22 14:59:19;;;;;;;3.33;0.82;;;;;;;22.03;53.96;98537.88;12203020;19;20014;-82
2023/09/22 15:03:21;;;;;;;3.40;1.00;;;;;;;21.96;55.14;98543.28;12206390;19;20021;-81
2023/09/22 15:07:23;;;;;;;3.63;0.73;;;;;;;21.67;56.11;98553.66;12191618;19;20402;-83
2023/09/22 15:11:25;;;;;;;1.90;1.10;;;;;;;21.57;56.24;98554.16;12208391;19;20023;-83
2023/09/22 15:15:27;;;;;;;2.63;0.60;;;;;;;21.43;57.97;98554.53;12213378;19;20342;-83
2023/09/22 15:19:29;;;;;;;3.23;0.80;;;;;;;21.21;57.90;98553.00;12186600;19;20003;-82
2023/09/22 15:23:31;;;;;;;2.23;0.63;;;;;;;21.23;58.67;98558.25;12206216;19;20010;-83
2023/09/22 15:27:33;;;;;;;2.53;1.23;;;;;;;21.05;59.41;98571.66;12203835;19;20469;-82
2023/09/22 15:31:35;;;;;;;1.57;0.70;;;;;;;20.92;60.86;98566.06;12210342;19;20034;-82
2023/09/22 15:35:41;;;;;;;5.93;1.85;;;;;;;20.86;62.18;98572.25;12206393;19;20651;-83
2023/09/22 15:39:43;;;;;;;5.45;1.08;;;;;;;20.91;61.83;98578.44;12183644;19;20026;-82
2023/09/22 15:43:45;;;;;;;2.23;1.00;;;;;;;21.04;62.07;98584.03;12203082;19;20007;-83
2023/09/22 15:47:47;;;;;;;3.60;1.13;;;;;;;20.82;62.95;98574.94;12197665;19;20678;-83
2023/09/22 15:51:49;;;;;;;2.28;0.85;;;;;;;20.56;63.89;98577.22;12181376;19;20014;-83
2023/09/22 15:55:50;;;;;;;5.80;2.42;;;;;;;20.31;65.16;98568.69;12205518;19;20014;-83
2023/09/22 15:59:52;;;;;;;1.67;0.90;;;;;;;20.25;66.22;98578.47;12205706;19;20033;-82
2023/09/22 16:03:54;;;;;;;3.23;0.80;;;;;;;20.21;65.59;98577.53;12189011;19;20033;-80
2023/09/22 16:07:56;;;;;;;5.77;0.93;;;;;;;20.17;66.12;98571.00;12227340;19;20102;-80
2023/09/22 16:11:58;;;;;;;3.37;0.83;;;;;;;20.13;66.18;98562.47;12227329;19;20021;-80
2023/09/22 16:16:02;;;;;;;2.20;0.98;;;;;;;20.20;66.21;98564.72;12213461;19;20015;-81
2023/09/22 16:20:04;;;;;;;4.15;1.17;;;;;;;20.26;66.28;98569.75;12209970;19;20007;-83
2023/09/22 16:24:06;;;;;;;2.45;0.95;;;;;;;20.21;65.24;98564.34;12203393;19;20014;-80
2023/09/22 16:28:08;;;;;;;2.92;1.20;;;;;;;20.14;65.75;98572.50;12181769;19;20003;-83
2023/09/22 16:32:09;;;;;;;2.55;0.90;;;;;;;20.03;65.20;98566.50;12204969;19;20504;-81
2023/09/22 16:36:12;;;;;;;2.13;0.65;;;;;;;19.88;65.90;98572.72;12204986;19;20608;-81
2023/09/22 16:40:14;;;;;;;3.22;0.80;;;;;;;19.70;67.95;98571.25;12185947;19;20006;-82
2023/09/22 16:44:16;;;;;;;1.85;0.63;;;;;;;19.57;68.73;98582.31;12204146;19;20007;-82
2023/09/22 16:48:18;;;;;;;3.10;0.95;;;;;;;19.46;68.50;98585.84;12203722;19;20457;-82
2023/09/22 16:52:20;;;;;;;1.13;0.60;;;;;;;19.41;69.07;98588.81;12182453;19;20010;-82
2023/09/22 16:56:24;;;;;;;1.87;1.00;;;;;;;19.35;69.38;98588.19;12196113;19;20045;-82
2023/09/22 17:00:26;;;;;;;2.67;0.95;;;;;;;19.30;73.53;98592.03;12202882;19;20969;-82
2023/09/22 17:04:28;;;;;;;3.67;1.73;;;;;;;19.23;73.88;98599.28;12180154;19;20010;-82
2023/09/22 17:08:32;;;;;;;3.97;0.87;;;;;;;18.97;81.16;98697.09;12203516;19;20002;-81
2023/09/22 17:12:33;;;;;;;5.25;1.00;;;;;;;17.84;99.68;98727.78;12186074;19;20007;-78
2023/09/22 17:16:35;;;;;;;1.85;0.88;;;;;;;16.51;100.00;98747.97;12196555;19;20373;-79
2023/09/22 17:20:39;;;;;;;1.77;0.50;;;;;;;15.61;100.00;98789.38;12196548;19;20014;-79
2023/09/22 17:24:41;;;;;;;5.53;1.23;;;;;;;15.18;100.00;98778.53;12179964;19;20082;-79
2023/09/22 17:28:43;;;;;;;4.75;0.93;;;;;;;14.94;100.00;98776.72;12189555;19;20010;-76
2023/09/22 17:32:45;;;;;;;5.27;0.93;;;;;;;14.68;100.00;98779.09;12182176;19;20796;-79
2023/09/22 17:36:47;;;;;;;5.10;1.00;;;;;;;14.55;100.00;98783.47;12166901;19;20011;-78
2023/09/22 17:40:49;;;;;;;3.50;0.90;;;;;;;14.49;100.00;98765.25;12190788;19;20010;-79
2023/09/22 17:44:51;;;;;;;4.33;0.90;;;;;;;14.45;100.00;98746.72;12187439;19;20010;-77
2023/09/22 17:48:54;;;;;;;2.60;0.88;;;;;;;14.28;100.00;98748.09;12164623;19;20027;-76
2023/09/22 17:52:56;;;;;;;7.78;1.13;;;;;;;14.12;100.00;98743.91;12185010;19;20003;-78
2023/09/22 17:57:02;;;;;;;2.60;1.48;;;;;;;14.01;100.00;98745.16;12189062;19;20010;-77
2023/09/22 18:01:05;;;;;;;6.57;1.20;;;;;;;13.89;100.00;98742.81;12163215;19;20026;-77
2023/09/22 18:05:07;;;;;;;;;;;;;;;13.87;100.00;98745.09;12185397;19;20010;-78
2023/09/22 18:09:10;;;;;;;2.15;0.90;;;;;;;13.80;100.00;98739.06;12196348;19;19947;-78
2023/09/22 18:13:12;;;;;;;4.10;1.13;;;;;;;13.78;100.00;98744.09;12172732;19;20027;-78
2023/09/22 18:17:14;;;;;;;3.33;0.90;;;;;;;13.74;100.00;98749.41;12200621;19;20014;-77
2023/09/22 18:21:16;;;;;;;5.00;1.15;;;;;;;13.64;100.00;98758.66;12198288;19;20019;-79
2023/09/22 18:25:17;;;;;;;2.60;0.90;;;;;;;13.57;100.00;98760.97;12175281;19;20011;-79
2023/09/22 18:29:19;;;;;;;4.10;1.05;;;;;;;13.55;100.00;98751.31;12196652;19;20011;-78
2023/09/22 18:33:21;;;;;;;4.33;1.27;;;;;;;13.57;100.00;98760.16;12193951;19;20014;-79
2023/09/22 18:37:23;;;;;;;5.18;1.20;;;;;;;13.52;100.00;98766.56;12178702;19;20023;-79
2023/09/22 18:41:25;;;;;;;5.93;1.40;;;;;;;13.46;100.00;98770.50;12199164;19;20029;-79
2023/09/22 18:45:27;;;;;;;6.57;1.58;;;;;;;13.40;100.00;98774.44;12199002;19;20014;-78
2023/09/22 18:49:29;;;;;;;2.97;1.38;;;;;;;13.34;100.00;98784.75;12170945;19;20050;-78
2023/09/22 18:53:32;;;;;;;5.15;1.38;;;;;;;13.30;100.00;98799.47;12194155;19;20007;-78
2023/09/22 18:57:34;;;;;;;5.85;1.40;;;;;;;13.28;100.00;98810.00;12182429;19;20018;-77
2023/09/22 19:01:36;;;;;;;5.30;1.40;;;;;;;13.26;100.00;98815.81;12198342;19;20019;-78
2023/09/22 19:05:38;;;;;;;4.40;1.20;;;;;;;13.24;100.00;98831.88;12198386;19;20002;-78
2023/09/22 19:09:40;;;;;;;4.10;1.67;;;;;;;13.23;100.00;98844.84;12171472;19;20011;-76
2023/09/22 19:13:42;;;;;;;4.10;1.02;;;;;;;13.26;100.00;98845.41;12196202;19;20015;-79
2023/09/22 19:17:44;;;;;;;7.32;1.75;;;;;;;13.34;100.00;98847.56;12195247;19;20014;-79
2023/09/22 19:21:46;;;;;;;3.90;1.40;;;;;;;13.44;100.00;98850.22;12178359;19;20010;-79
2023/09/22 19:25:48;;;;;;;6.80;2.28;;;;;;;13.51;100.00;98870.09;12200954;19;20030;-79
2023/09/22 19:29:49;;;;;;;3.45;1.20;;;;;;;13.60;100.00;98873.88;12191243;19;20007;-79